Time;durP1;ratioP1;P1;durP2;ratioP2;P2;SDS_P1;SDS_P2;PMS_P1;PMS_P2;Temp;Humidity;BMP_temperature;BMP_pressure;BME280_temperature;BME280_humidity;BME280_pressure;Samples;Min_cycle;Max_cycle;Signal;HPM_P1;HPM_P2
2022/12/21 00:00:19;;;;;;;76.70;45.90;;;;;;;-6.13;99.19;98270.15;107810;1263;69211;-66
2022/12/21 00:03:08;;;;;;;70.40;46.30;;;;;;;-6.13;99.45;98265.73;107764;1267;69823;-65
2022/12/21 00:05:39;;;;;;;67.10;44.70;;;;;;;-6.13;99.46;98259.64;107753;1265;58904;-65
2022/12/21 00:08:08;;;;;;;74.50;41.50;;;;;;;-6.13;99.41;98261.33;107764;1267;58908;-65
2022/12/21 00:10:38;;;;;;;72.80;45.90;;;;;;;-6.13;99.41;98259.30;107812;1268;70674;-65
2022/12/21 00:13:07;;;;;;;86.00;49.20;;;;;;;-6.12;99.54;98245.72;107727;1267;69243;-65
2022/12/21 00:15:37;;;;;;;62.50;38.20;;;;;;;-6.12;98.78;98244.70;107774;1267;69283;-65
2022/12/21 00:18:08;;;;;;;76.00;44.70;;;;;;;-6.11;99.01;98241.64;107653;1267;58920;-65
2022/12/21 00:20:37;;;;;;;71.00;43.80;;;;;;;-6.10;99.15;98243.02;107656;1267;58876;-65
2022/12/21 00:23:07;;;;;;;66.30;38.20;;;;;;;-6.08;99.99;98247.61;107679;1263;70568;-65
2022/12/21 00:25:38;;;;;;;72.00;42.50;;;;;;;-6.07;99.96;98251.17;107663;1267;69157;-64
2022/12/21 00:28:07;;;;;;;68.50;41.70;;;;;;;-6.08;99.95;98253.55;107664;1264;69856;-65
2022/12/21 00:30:37;;;;;;;67.90;40.50;;;;;;;-6.09;99.99;98250.66;107677;1262;58889;-65
2022/12/21 00:33:07;;;;;;;60.90;35.80;;;;;;;-6.10;99.38;98252.17;107639;1267;58923;-65
2022/12/21 00:35:38;;;;;;;106.70;60.30;;;;;;;-6.11;98.63;98250.47;107785;1268;70596;-65
2022/12/21 00:38:08;;;;;;;;;;;;;;;-6.16;97.65;98246.03;107747;1265;69302;-65
2022/12/21 00:40:37;;;;;;;90.20;50.50;;;;;;;-6.21;96.65;98247.19;107706;1269;69146;-65
2022/12/21 00:43:07;;;;;;;83.10;47.90;;;;;;;-6.25;95.90;98248.17;107762;1269;58978;-66
2022/12/21 00:45:36;;;;;;;105.30;59.80;;;;;;;-6.28;95.37;98247.48;107733;1265;58853;-66
2022/12/21 00:48:08;;;;;;;96.10;58.40;;;;;;;-6.29;94.92;98239.33;107646;1270;69636;-66
2022/12/21 00:50:37;;;;;;;106.80;59.30;;;;;;;-6.30;96.27;98244.23;107677;1269;69836;-64
2022/12/21 00:53:08;;;;;;;110.90;63.60;;;;;;;-6.32;97.72;98242.69;107615;1268;69085;-65
2022/12/21 00:55:38;;;;;;;102.80;58.30;;;;;;;-6.35;96.12;98232.83;107623;1266;59028;-64
2022/12/21 00:58:07;;;;;;;;;;;;;;;-6.37;95.28;98234.52;107650;1266;58959;-65
2022/12/21 01:00:38;;;;;;;93.10;55.20;;;;;;;-6.38;94.69;98234.84;107681;1270;69671;-64
2022/12/21 01:03:07;;;;;;;95.60;56.90;;;;;;;-6.42;96.90;98230.73;107646;1268;69831;-64
2022/12/21 01:05:38;;;;;;;92.00;53.50;;;;;;;-6.44;94.94;98222.92;107742;1265;69137;-65
2022/12/21 01:08:08;;;;;;;;;;;;;;;-6.44;97.38;98216.64;107734;1263;58892;-64
2022/12/21 01:10:43;;;;;;;83.80;46.90;;;;;;;-6.46;97.95;98212.23;107707;1263;58883;-66
2022/12/21 01:13:15;;;;;;;99.20;57.60;;;;;;;-6.48;98.02;98207.12;107795;1268;69711;-66
2022/12/21 01:15:46;;;;;;;76.60;47.20;;;;;;;-6.48;98.93;98199.65;107854;1262;69173;-64
2022/12/21 01:18:15;;;;;;;;;;;;;;;-6.50;98.98;98193.38;107896;1267;69908;-65
2022/12/21 01:20:46;;;;;;;86.70;48.40;;;;;;;-6.52;98.79;98187.25;107738;1267;58934;-65
2022/12/21 01:23:19;;;;;;;70.70;42.90;;;;;;;-6.53;99.46;98190.46;107782;1267;58856;-66
2022/12/21 01:25:50;;;;;;;75.50;44.20;;;;;;;-6.55;99.48;98183.33;107740;1267;71153;-66
2022/12/21 01:28:20;;;;;;;86.10;47.00;;;;;;;-6.58;99.44;98175.67;107709;1270;69255;-66
2022/12/21 01:30:52;;;;;;;63.80;40.40;;;;;;;-6.59;99.63;98169.91;107722;1270;69305;-65
2022/12/21 01:33:23;;;;;;;83.70;50.60;;;;;;;-6.61;99.79;98165.98;107800;1263;59818;-66
2022/12/21 01:35:52;;;;;;;83.70;46.50;;;;;;;-6.62;99.93;98166.99;107666;1269;58859;-66
2022/12/21 01:38:22;;;;;;;83.70;49.30;;;;;;;-6.65;99.38;98161.21;107800;1268;70471;-66
2022/12/21 01:40:51;;;;;;;61.10;39.10;;;;;;;-6.69;98.86;98154.23;107701;1267;68650;-66
2022/12/21 01:44:02;;;;;;;65.40;36.20;;;;;;;-6.71;98.72;98157.43;107639;1270;69900;-66
2022/12/21 01:46:47;;;;;;;81.60;45.90;;;;;;;-6.73;99.20;98151.49;107260;1274;58922;-66
2022/12/21 01:49:31;;;;;;;78.80;42.00;;;;;;;-6.73;99.63;98146.41;107334;1270;58971;-65
2022/12/21 01:52:06;;;;;;;64.00;37.90;;;;;;;-6.72;100.00;98142.68;107558;1270;71650;-65
2022/12/21 01:54:42;;;;;;;64.60;41.20;;;;;;;-6.70;100.00;98143.54;107754;1268;68409;-65
2022/12/21 01:57:16;;;;;;;80.40;48.60;;;;;;;-6.69;100.00;98139.83;107647;1267;69317;-65
2022/12/21 01:59:56;;;;;;;90.30;49.50;;;;;;;-6.69;100.00;98137.63;107796;1268;58956;-65
2022/12/21 02:02:40;;;;;;;80.60;46.00;;;;;;;-6.68;100.00;98132.20;107827;1268;58972;-65
2022/12/21 02:05:36;;;;;;;75.40;44.00;;;;;;;-6.67;100.00;98126.10;107678;1265;70676;-65
2022/12/21 02:08:06;;;;;;;81.40;47.10;;;;;;;-6.66;100.00;98135.77;107770;1270;69219;-65
2022/12/21 02:10:38;;;;;;;78.50;47.00;;;;;;;-6.65;99.95;98128.67;107823;1267;69275;-65
2022/12/21 02:13:09;;;;;;;;;;;;;;;-6.62;99.48;98128.00;107769;1269;58893;-65
2022/12/21 02:16:03;;;;;;;61.60;37.00;;;;;;;-6.60;99.51;98128.19;107197;1267;769992;-65
2022/12/21 02:19:11;;;;;;;61.00;35.40;;;;;;;-6.60;99.72;98122.27;107639;1267;69894;-65
2022/12/21 02:22:04;;;;;;;77.00;44.00;;;;;;;-6.58;100.00;98118.52;107662;1264;68738;-65
2022/12/21 02:25:28;;;;;;;67.10;41.70;;;;;;;-6.53;99.98;98120.93;107722;1268;69221;-65
2022/12/21 02:28:16;;;;;;;72.90;42.30;;;;;;;-6.52;99.89;98113.98;107654;1269;59029;-65
2022/12/21 02:30:56;;;;;;;;;;;;;;;-6.52;99.74;98115.68;107893;1265;58950;-64
2022/12/21 02:33:35;;;;;;;70.60;41.20;;;;;;;-6.53;99.70;98108.89;107788;1267;69708;-65
2022/12/21 02:36:05;;;;;;;69.10;42.90;;;;;;;-6.50;100.00;98102.31;107772;1270;69767;-65
2022/12/21 02:38:42;;;;;;;83.90;45.40;;;;;;;-6.50;100.00;98098.06;107688;1268;69148;-65
2022/12/21 02:41:16;;;;;;;53.50;31.80;;;;;;;-6.48;100.00;98098.91;107679;1264;59044;-64
2022/12/21 02:44:14;;;;;;;58.70;36.90;;;;;;;-6.47;99.99;98087.05;107715;1263;58912;-64
2022/12/21 02:47:10;;;;;;;74.40;43.80;;;;;;;-6.44;99.97;98086.56;107676;1269;70594;-64
2022/12/21 02:49:47;;;;;;;74.10;42.00;;;;;;;-6.38;100.00;98087.10;107628;1260;69254;-65
2022/12/21 02:52:52;;;;;;;68.40;40.00;;;;;;;-6.33;100.00;98086.79;107656;1265;68949;-64
2022/12/21 02:55:24;;;;;;;82.50;44.00;;;;;;;-6.26;100.00;98079.70;107646;1270;58980;-64
2022/12/21 02:58:19;;;;;;;60.40;39.70;;;;;;;-6.22;100.00;98078.70;107697;1269;58918;-65
2022/12/21 03:01:07;;;;;;;86.40;51.50;;;;;;;-6.16;100.00;98077.02;107777;1266;69871;-65
2022/12/21 03:03:50;;;;;;;91.90;52.90;;;;;;;-6.12;100.00;98071.43;107682;1267;69157;-65
2022/12/21 03:06:51;;;;;;;67.80;37.50;;;;;;;-6.10;99.99;98067.02;107661;1265;68677;-65
2022/12/21 03:09:49;;;;;;;68.50;39.50;;;;;;;-6.08;99.77;98065.68;107719;1266;58898;-64
2022/12/21 03:12:34;;;;;;;82.70;45.20;;;;;;;-6.06;99.54;98064.33;107707;1269;58944;-65
2022/12/21 03:15:22;;;;;;;81.40;46.00;;;;;;;-6.05;99.39;98066.21;107678;1267;70284;-65
2022/12/21 03:18:28;;;;;;;65.10;42.40;;;;;;;-6.01;99.62;98065.02;107651;1263;69215;-64
2022/12/21 03:21:13;;;;;;;68.70;42.40;;;;;;;-5.98;99.88;98066.39;107555;1270;68455;-65
2022/12/21 03:24:16;;;;;;;66.10;40.30;;;;;;;-5.92;100.00;98061.65;107664;1266;58979;-64
2022/12/21 03:26:54;;;;;;;86.30;51.00;;;;;;;-5.81;100.00;98058.27;107769;1270;58957;-65
2022/12/21 03:29:36;;;;;;;91.70;51.00;;;;;;;-5.71;100.00;98052.50;107761;1269;70473;-65
2022/12/21 03:32:13;;;;;;;91.60;51.10;;;;;;;-5.62;100.00;98048.95;107705;1265;69839;-65
2022/12/21 03:34:48;;;;;;;79.50;46.40;;;;;;;-5.57;100.00;98052.54;107663;1268;69597;-65
2022/12/21 03:37:23;;;;;;;81.00;48.20;;;;;;;-5.53;100.00;98061.71;107717;1270;58973;-65
2022/12/21 03:40:12;;;;;;;81.60;49.60;;;;;;;-5.48;100.00;98062.23;107700;1266;58959;-65
2022/12/21 03:42:48;;;;;;;79.30;48.40;;;;;;;-5.43;100.00;98064.10;107684;1267;70567;-65
2022/12/21 03:45:26;;;;;;;88.80;50.00;;;;;;;-5.38;100.00;98060.36;107800;1269;69829;-65
2022/12/21 03:48:14;;;;;;;81.10;48.70;;;;;;;-5.37;99.96;98052.71;107676;1267;68538;-65
2022/12/21 03:50:46;;;;;;;75.00;47.40;;;;;;;-5.38;99.53;98051.53;107672;1265;58920;-65
2022/12/21 03:53:33;;;;;;;77.90;45.00;;;;;;;-5.40;99.18;98057.81;107688;1264;58919;-65
2022/12/21 03:56:08;;;;;;;75.20;46.10;;;;;;;-5.42;98.68;98052.38;107656;1268;70606;-65
2022/12/21 03:58:38;;;;;;;67.40;41.20;;;;;;;-5.46;98.36;98050.17;107732;1267;68472;-65
2022/12/21 04:01:42;;;;;;;77.00;45.40;;;;;;;-5.45;98.37;98045.08;107739;1269;69355;-65
2022/12/21 04:04:29;;;;;;;74.10;49.10;;;;;;;-5.45;98.84;98037.61;107676;1271;58972;-65
2022/12/21 04:07:03;;;;;;;76.30;47.10;;;;;;;-5.45;98.72;98030.11;107809;1264;58894;-66
2022/12/21 04:09:34;;;;;;;76.40;46.70;;;;;;;-5.46;98.93;98028.76;107779;1268;69797;-65
2022/12/21 04:14:56;;;;;;;69.40;43.80;;;;;;;-5.52;98.46;98017.38;108478;1270;68548;-65
2022/12/21 04:17:26;;;;;;;73.30;42.70;;;;;;;-5.56;98.18;98013.98;107752;1268;58975;-65
2022/12/21 04:19:59;;;;;;;60.10;34.60;;;;;;;-5.58;98.50;98017.55;107879;1271;58875;-65
2022/12/21 04:28:21;;;;;;;59.90;37.70;;;;;;;-5.58;99.58;98026.38;107708;1267;69235;-65
2022/12/21 04:31:12;;;;;;;63.10;38.60;;;;;;;-5.58;99.91;98030.64;107626;1269;58909;-65
2022/12/21 04:33:42;;;;;;;79.70;47.90;;;;;;;-5.58;99.94;98018.73;107677;1267;58988;-65
2022/12/21 04:39:00;;;;;;;83.10;49.30;;;;;;;-5.66;98.59;98002.41;107706;1267;68303;-65
2022/12/21 04:41:29;;;;;;;84.80;49.90;;;;;;;-5.77;97.45;98003.77;107665;1269;69222;-65
2022/12/21 04:43:59;;;;;;;87.00;52.00;;;;;;;-5.91;97.02;98002.58;107675;1267;58974;-65
2022/12/21 04:46:29;;;;;;;80.30;48.60;;;;;;;-6.04;97.82;98001.72;107778;1268;58856;-65
2022/12/21 04:48:59;;;;;;;87.50;50.50;;;;;;;-6.10;98.24;98007.13;107800;1268;69858;-65
2022/12/21 04:51:29;;;;;;;80.20;46.90;;;;;;;-6.17;98.21;98008.81;107822;1267;68035;-65
2022/12/21 04:53:58;;;;;;;75.40;44.70;;;;;;;-6.22;98.51;98015.58;107766;1267;69171;-65
2022/12/21 04:56:27;;;;;;;77.30;45.00;;;;;;;-6.23;99.66;98020.16;107693;1267;58890;-65
2022/12/21 04:58:58;;;;;;;84.90;49.50;;;;;;;-6.24;100.00;98019.15;107665;1267;58848;-65
2022/12/21 05:01:28;;;;;;;88.70;48.80;;;;;;;-6.25;100.00;98013.36;107796;1267;69608;-65
2022/12/21 05:03:58;;;;;;;67.40;40.90;;;;;;;-6.27;99.99;98007.59;107852;1267;69437;-65
2022/12/21 05:06:28;;;;;;;82.90;47.50;;;;;;;-6.28;99.66;98006.56;107795;1273;69269;-65
2022/12/21 05:08:57;;;;;;;79.00;44.70;;;;;;;-6.27;99.00;98008.45;107783;1270;58959;-65
2022/12/21 05:11:27;;;;;;;64.80;36.90;;;;;;;-6.26;99.23;98006.41;107729;1267;58966;-65
2022/12/21 05:13:58;;;;;;;68.80;41.30;;;;;;;-6.26;99.31;98005.89;107723;1268;71111;-65
2022/12/21 05:16:26;;;;;;;;;;;;;;;-6.27;99.42;98006.91;107839;1263;69874;-65
2022/12/21 05:18:56;;;;;;;73.50;42.00;;;;;;;-6.28;99.97;97998.45;107803;1267;68713;-65
2022/12/21 05:21:25;;;;;;;65.40;40.60;;;;;;;-6.29;99.98;98002.65;107783;1269;58962;-65
2022/12/21 05:23:54;;;;;;;63.80;39.80;;;;;;;-6.32;99.95;98002.83;107836;1264;58902;-65
2022/12/21 05:26:23;;;;;;;70.30;41.30;;;;;;;-6.35;99.93;97998.73;107818;1270;71660;-65
2022/12/21 05:28:53;;;;;;;78.20;49.20;;;;;;;-6.37;100.00;98004.34;107798;1268;68423;-66
2022/12/21 05:31:22;;;;;;;67.40;42.80;;;;;;;-6.40;100.00;98006.02;107726;1267;68498;-66
2022/12/21 05:33:52;;;;;;;64.20;41.90;;;;;;;-6.42;100.00;98006.70;107729;1267;58939;-65
2022/12/21 05:36:21;;;;;;;;;;;;;;;-6.43;100.00;98013.13;107834;1271;58897;-65
2022/12/21 05:38:50;;;;;;;65.60;39.40;;;;;;;-6.44;100.00;98013.63;107814;1266;69865;-66
2022/12/21 05:41:20;;;;;;;61.50;38.30;;;;;;;-6.44;100.00;98013.29;107768;1269;69242;-65
2022/12/21 05:43:49;;;;;;;89.00;53.00;;;;;;;-6.44;100.00;98006.34;107886;1266;68661;-66
2022/12/21 05:46:19;;;;;;;82.10;46.90;;;;;;;-6.43;100.00;98001.08;107823;1267;58981;-66
2022/12/21 05:48:55;;;;;;;93.60;52.30;;;;;;;-6.44;99.61;97996.50;107772;1270;58913;-65
2022/12/21 05:51:26;;;;;;;83.90;49.70;;;;;;;-6.45;98.49;98000.91;107730;1269;70688;-66
2022/12/21 05:53:59;;;;;;;73.60;43.60;;;;;;;-6.45;97.31;97996.67;107660;1269;68424;-65
2022/12/21 05:56:29;;;;;;;72.90;42.40;;;;;;;-6.45;97.34;97995.31;107756;1267;69279;-65
2022/12/21 05:58:58;;;;;;;66.80;43.30;;;;;;;-6.43;98.47;97994.98;107717;1267;59024;-65
2022/12/21 06:01:28;;;;;;;;;;;;;;;-6.40;99.91;97991.27;107837;1261;58871;-65
2022/12/21 06:03:58;;;;;;;97.80;54.70;;;;;;;-6.37;100.00;97994.84;107824;1267;69942;-66
2022/12/21 06:06:27;;;;;;;79.50;48.90;;;;;;;-6.35;100.00;97996.70;107712;1267;69111;-65
2022/12/21 06:08:56;;;;;;;104.90;59.40;;;;;;;-6.31;100.00;97996.55;107661;1267;68487;-65
2022/12/21 06:11:25;;;;;;;118.10;68.30;;;;;;;-6.28;100.00;97989.43;107750;1270;59046;-65
2022/12/21 06:13:54;;;;;;;100.80;59.60;;;;;;;-6.25;100.00;97984.52;107825;1267;58891;-66
2022/12/21 06:16:27;;;;;;;112.10;66.10;;;;;;;-6.22;100.00;97974.52;107728;1269;71114;-65
2022/12/21 06:18:58;;;;;;;113.40;67.60;;;;;;;-6.17;100.00;97976.58;107693;1266;70230;-65
2022/12/21 06:21:27;;;;;;;105.10;65.90;;;;;;;-6.05;100.00;97978.63;107745;1267;69229;-65
2022/12/21 06:23:56;;;;;;;105.90;61.50;;;;;;;-5.99;100.00;97979.65;107676;1267;59042;-65
2022/12/21 06:26:25;;;;;;;104.00;60.50;;;;;;;-5.93;100.00;97983.56;107764;1267;59341;-65
2022/12/21 06:28:55;;;;;;;72.60;47.50;;;;;;;-5.86;100.00;97984.56;107785;1267;69601;-65
2022/12/21 06:31:24;;;;;;;110.70;58.50;;;;;;;-5.80;100.00;97987.46;107837;1267;69206;-65
2022/12/21 06:33:55;;;;;;;89.30;53.70;;;;;;;-5.75;100.00;97978.81;107648;1263;69286;-66
2022/12/21 06:36:24;;;;;;;92.00;54.20;;;;;;;-5.68;100.00;97981.02;107653;1268;58947;-66
2022/12/21 06:38:55;;;;;;;89.10;52.90;;;;;;;-5.58;100.00;97977.45;107732;1267;58915;-65
2022/12/21 06:41:24;;;;;;;91.90;55.10;;;;;;;-5.49;100.00;97979.34;107852;1263;70483;-66
2022/12/21 06:43:53;;;;;;;115.50;67.80;;;;;;;-5.38;100.00;97975.75;107851;1267;68611;-64
2022/12/21 06:46:21;;;;;;;111.10;67.40;;;;;;;-5.27;100.00;97973.89;107809;1269;68276;-64
2022/12/21 06:48:51;;;;;;;113.60;70.00;;;;;;;-5.15;99.87;97968.59;107705;1274;58997;-65
2022/12/21 06:51:23;;;;;;;132.70;80.80;;;;;;;-5.05;99.21;97968.41;107815;1268;58937;-66
2022/12/21 06:53:53;;;;;;;139.30;88.30;;;;;;;-4.97;98.71;97969.58;107780;1266;71198;-66
2022/12/21 06:56:26;;;;;;;119.50;75.20;;;;;;;-4.90;98.24;97972.63;107778;1272;69173;-67
2022/12/21 06:58:55;;;;;;;111.10;69.70;;;;;;;-4.83;97.99;97980.08;107737;1263;69810;-65
2022/12/21 07:01:31;;;;;;;112.10;68.00;;;;;;;-4.76;98.23;97980.91;107718;1267;58917;-66
2022/12/21 07:04:01;;;;;;;108.00;64.60;;;;;;;-4.66;98.76;97983.94;107821;1267;58982;-66
2022/12/21 07:06:31;;;;;;;105.50;61.60;;;;;;;-4.53;98.79;97987.48;107822;1267;71238;-65
2022/12/21 07:09:00;;;;;;;;;;;;;;;-4.43;98.31;97995.09;107774;1265;69830;-66
2022/12/21 07:11:30;;;;;;;92.10;54.70;;;;;;;-4.35;97.64;97998.30;107812;1267;69896;-66
2022/12/21 07:14:00;;;;;;;83.70;51.00;;;;;;;-4.25;97.55;97991.45;107868;1267;58884;-65
2022/12/21 07:16:29;;;;;;;84.00;54.40;;;;;;;-4.13;97.49;97991.55;107772;1266;58913;-66
2022/12/21 07:18:58;;;;;;;80.70;52.10;;;;;;;-4.03;97.19;97986.40;107972;1267;71212;-67
2022/12/21 07:21:26;;;;;;;90.50;54.20;;;;;;;-3.94;96.76;97984.98;107769;1267;69791;-67
2022/12/21 07:23:56;;;;;;;96.40;56.30;;;;;;;-3.86;96.39;97987.81;107812;1267;69200;-67
2022/12/21 07:26:25;;;;;;;91.50;56.10;;;;;;;-3.78;96.13;97984.70;107747;1267;58954;-67
2022/12/21 07:28:55;;;;;;;96.60;61.10;;;;;;;-3.71;95.83;97981.76;107718;1267;58959;-67
2022/12/21 07:31:25;;;;;;;;;;;;;;;-3.69;95.42;97979.69;107861;1267;69606;-67
2022/12/21 07:33:55;;;;;;;90.10;58.60;;;;;;;-3.66;95.11;97970.80;107739;1267;69080;-67
2022/12/21 07:36:24;;;;;;;109.30;67.40;;;;;;;-3.65;94.83;97978.14;107771;1265;69913;-67
2022/12/21 07:38:54;;;;;;;102.20;64.40;;;;;;;-3.62;95.26;97981.69;107771;1267;58954;-66
2022/12/21 07:41:23;;;;;;;100.00;62.40;;;;;;;-3.57;95.07;97981.66;107718;1267;58915;-66
2022/12/21 07:43:52;;;;;;;84.30;53.50;;;;;;;-3.51;94.89;97976.50;107769;1267;71201;-66
2022/12/21 07:46:39;;;;;;;106.80;68.10;;;;;;;-3.44;94.76;97977.29;107750;1267;69181;-67
2022/12/21 07:49:10;;;;;;;98.20;65.30;;;;;;;-3.42;94.36;97980.00;107772;1267;68770;-67
2022/12/21 07:51:40;;;;;;;91.70;57.90;;;;;;;-3.38;94.06;97984.74;107758;1267;58903;-67
2022/12/21 07:54:09;;;;;;;117.60;75.60;;;;;;;-3.32;94.56;97983.16;107677;1267;58897;-68
2022/12/21 07:56:38;;;;;;;118.20;77.60;;;;;;;-3.30;94.32;97979.73;107724;1267;70548;-66
2022/12/21 07:59:07;;;;;;;111.30;73.30;;;;;;;-3.29;94.13;97974.27;107738;1268;69042;-66
2022/12/21 08:01:36;;;;;;;119.40;76.10;;;;;;;-3.25;94.41;97974.06;107867;1260;69289;-67
2022/12/21 08:04:07;;;;;;;115.80;72.80;;;;;;;-3.22;94.16;97976.93;107679;1263;58898;-68
2022/12/21 08:06:36;;;;;;;109.10;68.00;;;;;;;-3.17;93.99;97981.15;107739;1259;58904;-68
2022/12/21 08:09:14;;;;;;;96.80;64.20;;;;;;;-3.12;93.91;97981.11;107702;1263;70542;-67
2022/12/21 08:11:43;;;;;;;100.90;64.10;;;;;;;-3.11;93.70;97984.50;107707;1267;69145;-67
2022/12/21 08:14:12;;;;;;;97.50;60.80;;;;;;;-3.12;93.41;97982.98;107646;1263;69886;-65
2022/12/21 08:16:41;;;;;;;98.60;65.60;;;;;;;-3.11;93.49;97980.57;107829;1267;58963;-67
2022/12/21 08:19:10;;;;;;;97.10;61.80;;;;;;;-2.99;93.59;97976.89;107761;1265;58932;-66
2022/12/21 08:21:39;;;;;;;93.60;59.40;;;;;;;-2.92;93.24;97974.08;107736;1267;70913;-66
2022/12/21 08:24:08;;;;;;;86.70;58.10;;;;;;;-2.78;93.02;97971.55;107835;1264;68383;-66
2022/12/21 08:26:37;;;;;;;91.80;62.20;;;;;;;-2.70;92.87;97967.70;107766;1267;69293;-66
2022/12/21 08:29:06;;;;;;;85.70;52.80;;;;;;;-2.69;92.30;97968.21;107641;1267;58943;-68
2022/12/21 08:31:35;;;;;;;80.20;52.10;;;;;;;-2.62;92.10;97962.15;107773;1267;58895;-68
2022/12/21 08:34:04;;;;;;;78.50;51.30;;;;;;;-2.54;91.79;97962.58;107768;1267;71224;-66
2022/12/21 08:36:32;;;;;;;80.00;51.70;;;;;;;-2.45;91.47;97965.04;107805;1263;68331;-66
2022/12/21 08:39:01;;;;;;;72.60;48.80;;;;;;;-2.39;90.68;97963.07;107706;1267;69776;-67
2022/12/21 08:41:39;;;;;;;77.40;52.70;;;;;;;-2.28;90.57;97961.39;107742;1267;58969;-66
2022/12/21 08:44:10;;;;;;;81.90;53.40;;;;;;;-2.10;90.11;97959.10;107656;1263;58962;-67
2022/12/21 08:46:39;;;;;;;77.60;51.50;;;;;;;-1.74;89.57;97963.21;107800;1267;70452;-67
2022/12/21 08:49:07;;;;;;;69.40;48.80;;;;;;;-0.74;85.53;97962.35;107680;1268;69161;-67
2022/12/21 08:51:37;;;;;;;65.50;48.20;;;;;;;0.26;79.36;97954.80;107618;1267;69846;-66
2022/12/21 08:54:07;;;;;;;72.70;50.20;;;;;;;0.99;75.19;97953.52;107776;1263;58908;-67
2022/12/21 08:56:36;;;;;;;68.70;49.70;;;;;;;1.55;73.54;97946.18;107685;1267;58922;-66
2022/12/21 08:59:07;;;;;;;73.10;50.30;;;;;;;1.97;70.61;97947.38;107808;1267;71038;-67
2022/12/21 09:01:36;;;;;;;70.80;51.70;;;;;;;2.43;68.75;97946.45;107645;1267;69500;-67
2022/12/21 09:04:05;;;;;;;72.10;53.70;;;;;;;3.22;65.64;97940.02;107688;1264;69315;-67
2022/12/21 09:06:34;;;;;;;69.50;53.40;;;;;;;4.12;65.94;97937.77;107771;1264;58900;-67
2022/12/21 09:09:03;;;;;;;73.20;55.40;;;;;;;4.49;61.95;97945.65;107763;1262;58911;-67
2022/12/21 09:11:32;;;;;;;70.90;55.40;;;;;;;5.19;64.03;97937.77;107813;1267;71112;-67
2022/12/21 09:14:16;;;;;;;77.20;58.80;;;;;;;5.91;59.87;97924.38;107769;1266;68452;-67
2022/12/21 09:16:44;;;;;;;69.20;55.30;;;;;;;6.24;56.62;97919.09;107674;1269;68713;-67
2022/12/21 09:19:14;;;;;;;70.60;54.20;;;;;;;6.32;56.75;97915.55;107674;1269;58899;-67
2022/12/21 09:21:43;;;;;;;62.60;51.40;;;;;;;6.41;53.46;97908.35;107698;1270;58893;-68
2022/12/21 09:24:13;;;;;;;66.30;52.30;;;;;;;6.33;53.89;97903.41;107643;1268;70059;-68
2022/12/21 09:26:42;;;;;;;63.10;49.80;;;;;;;6.09;53.02;97903.14;107674;1265;69001;-67
2022/12/21 09:29:11;;;;;;;55.30;45.20;;;;;;;7.08;54.14;97899.31;107675;1266;69259;-67
2022/12/21 09:31:39;;;;;;;57.60;47.20;;;;;;;7.88;50.95;97891.49;107751;1269;58909;-68
2022/12/21 09:34:08;;;;;;;53.40;44.20;;;;;;;8.01;48.89;97889.57;107709;1270;58916;-68
2022/12/21 09:36:37;;;;;;;56.40;46.20;;;;;;;8.03;49.35;97885.44;107708;1264;70862;-68
2022/12/21 09:39:29;;;;;;;51.90;43.50;;;;;;;8.14;47.41;97884.84;107644;1270;69825;-67
2022/12/21 09:42:03;;;;;;;55.50;45.50;;;;;;;8.21;47.62;97881.89;107725;1270;68309;-68
2022/12/21 09:44:56;;;;;;;50.70;43.60;;;;;;;8.83;45.99;97889.46;107746;1270;58897;-68
2022/12/21 09:47:49;;;;;;;50.90;43.20;;;;;;;8.76;46.31;97903.44;107669;1266;58890;-68
2022/12/21 09:50:30;;;;;;;50.40;41.30;;;;;;;9.16;46.19;97894.96;107681;1270;70496;-68
2022/12/21 09:53:06;;;;;;;44.00;38.40;;;;;;;10.11;46.86;97881.16;107601;1269;70039;-68
2022/12/21 09:55:41;;;;;;;45.40;38.00;;;;;;;10.93;43.39;97874.46;107735;1269;69287;-66
2022/12/21 09:58:17;;;;;;;49.40;41.30;;;;;;;11.50;43.80;97871.14;107813;1266;58966;-66
2022/12/21 10:00:51;;;;;;;44.70;38.50;;;;;;;11.93;41.27;97866.52;107601;1270;58861;-66
2022/12/21 10:04:01;;;;;;;46.60;38.30;;;;;;;12.26;40.79;97866.84;107646;1269;71195;-68
2022/12/21 10:06:48;;;;;;;41.60;35.60;;;;;;;12.53;38.46;97859.77;107288;1273;69176;-68
2022/12/21 10:09:43;;;;;;;40.50;34.40;;;;;;;12.69;38.51;97852.30;107872;1270;69505;-66
2022/12/21 10:12:56;;;;;;;41.20;34.10;;;;;;;12.36;37.57;97851.79;107807;1263;58995;-66
2022/12/21 10:15:36;;;;;;;40.60;33.30;;;;;;;11.56;37.25;97842.56;107770;1267;58948;-67
2022/12/21 10:18:17;;;;;;;37.20;33.10;;;;;;;11.57;37.80;97839.93;107742;1266;70564;-67
2022/12/21 10:21:16;;;;;;;32.10;28.60;;;;;;;11.92;37.65;97834.69;107630;1267;68249;-68
2022/12/21 10:23:49;;;;;;;33.60;27.70;;;;;;;12.53;34.85;97822.16;107792;1265;69171;-67
2022/12/21 10:26:22;;;;;;;25.30;22.10;;;;;;;12.60;32.74;97816.77;107838;1267;58884;-67
2022/12/21 10:28:53;;;;;;;27.00;22.80;;;;;;;11.99;33.48;97810.95;107744;1267;58934;-67
2022/12/21 10:31:32;;;;;;;26.50;23.20;;;;;;;11.32;35.60;97803.06;107696;1267;69568;-67
2022/12/21 10:34:26;;;;;;;28.00;24.40;;;;;;;10.99;36.29;97799.60;107659;1265;68545;-67
2022/12/21 10:36:59;;;;;;;25.20;21.10;;;;;;;10.28;36.77;97795.09;107617;1269;69766;-66
2022/12/21 10:39:30;;;;;;;31.00;27.30;;;;;;;10.11;36.88;97789.21;107674;1268;58967;-66
2022/12/21 10:42:11;;;;;;;30.60;26.50;;;;;;;10.72;39.15;97795.17;107667;1269;58968;-67
2022/12/21 10:44:41;;;;;;;27.90;22.90;;;;;;;10.39;37.80;97802.89;107675;1270;71226;-68
2022/12/21 10:47:12;;;;;;;;;;;;;;;10.52;36.91;97800.85;107750;1268;69694;-68
2022/12/21 10:49:48;;;;;;;29.00;22.80;;;;;;;10.77;36.71;97796.91;107725;1270;69746;-67
2022/12/21 10:52:33;;;;;;;31.40;26.70;;;;;;;11.26;36.52;97793.90;107712;1266;58931;-68
2022/12/21 10:55:02;;;;;;;30.50;26.50;;;;;;;11.30;35.99;97790.14;107672;1269;58945;-67
2022/12/21 10:57:35;;;;;;;41.90;36.00;;;;;;;11.35;36.58;97786.63;107663;1266;71246;-66
2022/12/21 11:00:23;;;;;;;40.30;34.90;;;;;;;11.80;37.25;97780.48;107681;1264;69691;-66
2022/12/21 11:02:56;;;;;;;41.50;36.50;;;;;;;12.43;36.19;97779.75;107579;1265;69352;-66
2022/12/21 11:05:34;;;;;;;43.70;37.20;;;;;;;11.27;37.25;97778.66;107656;1266;58959;-67
2022/12/21 11:08:30;;;;;;;38.40;34.20;;;;;;;11.78;37.01;97777.27;107676;1269;58962;-68
2022/12/21 11:11:02;;;;;;;43.30;35.20;;;;;;;11.51;37.70;97774.88;107728;1266;71795;-67
2022/12/21 11:13:32;;;;;;;43.90;37.50;;;;;;;12.33;36.00;97770.57;107699;1268;69225;-68
2022/12/21 11:16:04;;;;;;;48.00;40.30;;;;;;;12.39;35.31;97768.35;107644;1271;69965;-67
2022/12/21 11:18:43;;;;;;;50.80;41.20;;;;;;;12.38;35.79;97759.13;107714;1270;58943;-68
2022/12/21 11:21:46;;;;;;;53.60;42.70;;;;;;;12.20;35.77;97752.08;107579;1270;58976;-67
2022/12/21 11:24:24;;;;;;;56.70;46.40;;;;;;;13.12;34.63;97749.16;107700;1269;70556;-66
2022/12/21 11:26:59;;;;;;;67.80;58.00;;;;;;;13.52;33.86;97752.70;107700;1269;68662;-67
2022/12/21 11:29:50;;;;;;;68.00;56.90;;;;;;;13.23;33.97;97752.86;107741;1268;69261;-67
2022/12/21 11:32:21;;;;;;;70.60;59.90;;;;;;;12.46;35.19;97756.42;107776;1268;58900;-68
2022/12/21 11:34:52;;;;;;;82.80;67.70;;;;;;;12.41;35.62;97749.95;107657;1265;58916;-67
2022/12/21 11:37:31;;;;;;;77.00;64.00;;;;;;;12.13;36.47;97746.53;107647;1269;69810;-68
2022/12/21 11:40:16;;;;;;;69.00;60.80;;;;;;;12.16;36.61;97738.06;107714;1268;70536;-69
2022/12/21 11:42:51;;;;;;;73.60;58.10;;;;;;;12.14;36.56;97733.17;107653;1265;69831;-68
2022/12/21 11:45:23;;;;;;;68.80;55.80;;;;;;;11.87;37.42;97735.64;107633;1264;58967;-69
2022/12/21 11:48:05;;;;;;;76.70;63.70;;;;;;;11.87;38.28;97734.27;107650;1266;58898;-68
2022/12/21 11:51:04;;;;;;;75.20;62.00;;;;;;;12.39;37.44;97721.02;107655;1269;70567;-69
2022/12/21 11:53:39;;;;;;;81.70;68.20;;;;;;;12.90;36.88;97718.84;107668;1269;69825;-68
2022/12/21 11:56:44;;;;;;;78.30;64.40;;;;;;;12.84;36.87;97714.78;107716;1266;69257;-67
2022/12/21 11:59:31;;;;;;;74.00;62.40;;;;;;;12.73;36.46;97710.20;107663;1266;58949;-68